sensor_id;sensor_type;location;lat;lon;timestamp;temperature;humidity
19968;DHT22;10145;49.152;9.282;2023-04-25T00:01:21;8.20;99.90
19968;DHT22;10145;49.152;9.282;2023-04-25T00:03:49;8.20;99.90
19968;DHT22;10145;49.152;9.282;2023-04-25T00:06:15;8.30;99.90
19968;DHT22;10145;49.152;9.282;2023-04-25T00:08:43;8.30;99.90
19968;DHT22;10145;49.152;9.282;2023-04-25T00:11:08;8.20;99.90
19968;DHT22;10145;49.152;9.282;2023-04-25T00:13:34;8.30;99.90
19968;DHT22;10145;49.152;9.282;2023-04-25T00:15:59;8.30;99.90
19968;DHT22;10145;49.152;9.282;2023-04-25T00:18:25;8.30;99.90
19968;DHT22;10145;49.152;9.282;2023-04-25T00:20:54;8.30;99.90
19968;DHT22;10145;49.152;9.282;2023-04-25T00:23:20;8.40;99.90
19968;DHT22;10145;49.152;9.282;2023-04-25T00:25:47;8.40;99.90
19968;DHT22;10145;49.152;9.282;2023-04-25T00:28:13;8.40;99.90
19968;DHT22;10145;49.152;9.282;2023-04-25T00:30:39;8.50;99.90
19968;DHT22;10145;49.152;9.282;2023-04-25T00:33:05;8.50;99.90
19968;DHT22;10145;49.152;9.282;2023-04-25T00:35:31;8.50;99.90
19968;DHT22;10145;49.152;9.282;2023-04-25T00:37:56;8.50;99.90
19968;DHT22;10145;49.152;9.282;2023-04-25T00:40:22;8.50;99.90
19968;DHT22;10145;49.152;9.282;2023-04-25T00:42:47;8.50;99.90
19968;DHT22;10145;49.152;9.282;2023-04-25T00:45:14;8.50;99.90
19968;DHT22;10145;49.152;9.282;2023-04-25T00:47:41;8.50;99.90
19968;DHT22;10145;49.152;9.282;2023-04-25T00:50:07;8.50;99.90
19968;DHT22;10145;49.152;9.282;2023-04-25T00:52:33;8.50;99.90
19968;DHT22;10145;49.152;9.282;2023-04-25T00:54:59;8.40;99.90
19968;DHT22;10145;49.152;9.282;2023-04-25T00:57:25;8.40;99.90
19968;DHT22;10145;49.152;9.282;2023-04-25T00:59:51;8.30;99.90
19968;DHT22;10145;49.152;9.282;2023-04-25T01:02:18;8.30;99.90
19968;DHT22;10145;49.152;9.282;2023-04-25T01:04:44;8.30;99.90
19968;DHT22;10145;49.152;9.282;2023-04-25T01:07:10;8.30;99.90
19968;DHT22;10145;49.152;9.282;2023-04-25T01:09:36;8.30;99.90
19968;DHT22;10145;49.152;9.282;2023-04-25T01:12:02;8.30;99.90
19968;DHT22;10145;49.152;9.282;2023-04-25T01:14:28;8.30;99.90
19968;DHT22;10145;49.152;9.282;2023-04-25T01:16:54;8.30;99.90
19968;DHT22;10145;49.152;9.282;2023-04-25T01:19:20;8.40;99.90
19968;DHT22;10145;49.152;9.282;2023-04-25T01:21:46;8.40;99.90
19968;DHT22;10145;49.152;9.282;2023-04-25T01:24:12;8.40;99.90
19968;DHT22;10145;49.152;9.282;2023-04-25T01:26:38;8.40;99.90
19968;DHT22;10145;49.152;9.282;2023-04-25T01:29:07;8.40;99.90
19968;DHT22;10145;49.152;9.282;2023-04-25T01:31:33;8.40;99.90
19968;DHT22;10145;49.152;9.282;2023-04-25T01:34:00;8.40;99.90
19968;DHT22;10145;49.152;9.282;2023-04-25T01:36:25;8.40;99.90
19968;DHT22;10145;49.152;9.282;2023-04-25T01:38:52;8.40;99.90
19968;DHT22;10145;49.152;9.282;2023-04-25T01:41:18;8.50;99.90
19968;DHT22;10145;49.152;9.282;2023-04-25T01:43:44;8.40;99.90
19968;DHT22;10145;49.152;9.282;2023-04-25T01:46:12;8.40;99.90
19968;DHT22;10145;49.152;9.282;2023-04-25T01:48:37;8.40;99.90
19968;DHT22;10145;49.152;9.282;2023-04-25T01:51:03;8.40;99.90
19968;DHT22;10145;49.152;9.282;2023-04-25T01:53:29;8.30;99.90
19968;DHT22;10145;49.152;9.282;2023-04-25T01:55:54;8.30;99.90
19968;DHT22;10145;49.152;9.282;2023-04-25T01:58:20;8.20;99.90
19968;DHT22;10145;49.152;9.282;2023-04-25T02:00:46;8.10;99.90
19968;DHT22;10145;49.152;9.282;2023-04-25T02:03:12;8.00;99.90
19968;DHT22;10145;49.152;9.282;2023-04-25T02:05:38;7.90;99.90
19968;DHT22;10145;49.152;9.282;2023-04-25T02:08:06;7.90;99.90
19968;DHT22;10145;49.152;9.282;2023-04-25T02:10:33;7.80;99.90
19968;DHT22;10145;49.152;9.282;2023-04-25T02:12:58;7.90;99.90
19968;DHT22;10145;49.152;9.282;2023-04-25T02:15:24;7.90;99.90
19968;DHT22;10145;49.152;9.282;2023-04-25T02:17:50;7.90;99.90
19968;DHT22;10145;49.152;9.282;2023-04-25T02:20:18;7.90;99.90
19968;DHT22;10145;49.152;9.282;2023-04-25T02:22:46;7.90;99.90
19968;DHT22;10145;49.152;9.282;2023-04-25T02:25:12;7.90;99.90
19968;DHT22;10145;49.152;9.282;2023-04-25T02:27:38;7.90;99.90
19968;DHT22;10145;49.152;9.282;2023-04-25T02:30:04;7.90;99.90
19968;DHT22;10145;49.152;9.282;2023-04-25T02:32:32;7.90;99.90
19968;DHT22;10145;49.152;9.282;2023-04-25T02:34:57;7.90;99.90
19968;DHT22;10145;49.152;9.282;2023-04-25T02:37:29;8.00;99.90
19968;DHT22;10145;49.152;9.282;2023-04-25T02:39:55;8.00;99.90
19968;DHT22;10145;49.152;9.282;2023-04-25T02:42:20;8.10;99.90
19968;DHT22;10145;49.152;9.282;2023-04-25T02:44:46;8.10;99.90
19968;DHT22;10145;49.152;9.282;2023-04-25T02:47:11;8.10;99.90
19968;DHT22;10145;49.152;9.282;2023-04-25T02:49:37;8.10;99.90
19968;DHT22;10145;49.152;9.282;2023-04-25T02:52:02;8.20;99.90
19968;DHT22;10145;49.152;9.282;2023-04-25T02:54:28;8.20;99.90
19968;DHT22;10145;49.152;9.282;2023-04-25T02:56:53;8.20;99.90
19968;DHT22;10145;49.152;9.282;2023-04-25T02:59:19;8.20;99.90
19968;DHT22;10145;49.152;9.282;2023-04-25T03:01:44;8.20;99.90
19968;DHT22;10145;49.152;9.282;2023-04-25T03:04:10;8.20;99.90
19968;DHT22;10145;49.152;9.282;2023-04-25T03:06:36;8.20;99.90
19968;DHT22;10145;49.152;9.282;2023-04-25T03:09:01;8.20;99.90
19968;DHT22;10145;49.152;9.282;2023-04-25T03:11:27;8.20;99.90
19968;DHT22;10145;49.152;9.282;2023-04-25T03:13:52;8.20;99.90
19968;DHT22;10145;49.152;9.282;2023-04-25T03:16:18;8.30;99.90
19968;DHT22;10145;49.152;9.282;2023-04-25T03:18:43;8.30;99.90
19968;DHT22;10145;49.152;9.282;2023-04-25T03:21:09;8.30;99.90
19968;DHT22;10145;49.152;9.282;2023-04-25T03:23:34;8.30;99.90
19968;DHT22;10145;49.152;9.282;2023-04-25T03:26:00;8.30;99.90
19968;DHT22;10145;49.152;9.282;2023-04-25T03:28:25;8.30;99.90
19968;DHT22;10145;49.152;9.282;2023-04-25T03:30:51;8.30;99.90
19968;DHT22;10145;49.152;9.282;2023-04-25T03:33:16;8.30;99.90
19968;DHT22;10145;49.152;9.282;2023-04-25T03:35:42;8.30;99.90
19968;DHT22;10145;49.152;9.282;2023-04-25T03:38:08;8.30;99.90
19968;DHT22;10145;49.152;9.282;2023-04-25T03:40:33;8.30;99.90
19968;DHT22;10145;49.152;9.282;2023-04-25T03:42:59;8.30;99.90
19968;DHT22;10145;49.152;9.282;2023-04-25T03:45:25;8.30;99.90
19968;DHT22;10145;49.152;9.282;2023-04-25T03:47:50;8.30;99.90
19968;DHT22;10145;49.152;9.282;2023-04-25T03:50:16;8.30;99.90
19968;DHT22;10145;49.152;9.282;2023-04-25T03:52:43;8.20;99.90
19968;DHT22;10145;49.152;9.282;2023-04-25T03:55:09;8.10;99.90
19968;DHT22;10145;49.152;9.282;2023-04-25T03:57:35;8.10;99.90
19968;DHT22;10145;49.152;9.282;2023-04-25T04:00:00;8.10;99.90
19968;DHT22;10145;49.152;9.282;2023-04-25T04:02:26;8.10;99.90
19968;DHT22;10145;49.152;9.282;2023-04-25T04:04:52;8.10;99.90
19968;DHT22;10145;49.152;9.282;2023-04-25T04:07:17;8.10;99.90
19968;DHT22;10145;49.152;9.282;2023-04-25T04:09:43;8.00;99.90
19968;DHT22;10145;49.152;9.282;2023-04-25T04:12:08;8.00;99.90
19968;DHT22;10145;49.152;9.282;2023-04-25T04:14:34;8.00;99.90
19968;DHT22;10145;49.152;9.282;2023-04-25T04:16:59;8.00;99.90
19968;DHT22;10145;49.152;9.282;2023-04-25T04:19:25;8.00;99.90
19968;DHT22;10145;49.152;9.282;2023-04-25T04:21:51;7.90;99.90
19968;DHT22;10145;49.152;9.282;2023-04-25T04:24:16;7.90;99.90
19968;DHT22;10145;49.152;9.282;2023-04-25T04:26:42;7.90;99.90
19968;DHT22;10145;49.152;9.282;2023-04-25T04:29:10;7.90;99.90
19968;DHT22;10145;49.152;9.282;2023-04-25T04:31:36;7.90;99.90
19968;DHT22;10145;49.152;9.282;2023-04-25T04:34:02;7.90;99.90
19968;DHT22;10145;49.152;9.282;2023-04-25T04:36:29;7.90;99.90
19968;DHT22;10145;49.152;9.282;2023-04-25T04:38:54;7.90;99.90
19968;DHT22;10145;49.152;9.282;2023-04-25T04:41:21;7.90;99.90
19968;DHT22;10145;49.152;9.282;2023-04-25T04:43:47;7.90;99.90
19968;DHT22;10145;49.152;9.282;2023-04-25T04:46:13;7.90;99.90
19968;DHT22;10145;49.152;9.282;2023-04-25T04:48:38;7.90;99.90
19968;DHT22;10145;49.152;9.282;2023-04-25T04:51:05;7.90;99.90
19968;DHT22;10145;49.152;9.282;2023-04-25T04:53:31;7.90;99.90
19968;DHT22;10145;49.152;9.282;2023-04-25T04:55:56;7.90;99.90
19968;DHT22;10145;49.152;9.282;2023-04-25T04:58:22;7.90;99.90
19968;DHT22;10145;49.152;9.282;2023-04-25T05:00:48;7.90;99.90
19968;DHT22;10145;49.152;9.282;2023-04-25T05:03:14;7.90;99.90
19968;DHT22;10145;49.152;9.282;2023-04-25T05:05:39;8.00;99.90
19968;DHT22;10145;49.152;9.282;2023-04-25T05:08:08;8.00;99.90
19968;DHT22;10145;49.152;9.282;2023-04-25T05:10:33;8.00;99.90
19968;DHT22;10145;49.152;9.282;2023-04-25T05:12:59;7.90;99.90
19968;DHT22;10145;49.152;9.282;2023-04-25T05:15:24;7.90;99.90
19968;DHT22;10145;49.152;9.282;2023-04-25T05:17:50;7.80;99.90
19968;DHT22;10145;49.152;9.282;2023-04-25T05:20:15;7.70;99.90
19968;DHT22;10145;49.152;9.282;2023-04-25T05:22:41;7.70;99.90
19968;DHT22;10145;49.152;9.282;2023-04-25T05:25:08;7.60;99.90
19968;DHT22;10145;49.152;9.282;2023-04-25T05:27:34;7.60;99.90
19968;DHT22;10145;49.152;9.282;2023-04-25T05:29:59;7.70;99.90
19968;DHT22;10145;49.152;9.282;2023-04-25T05:32:25;7.70;99.90
19968;DHT22;10145;49.152;9.282;2023-04-25T05:34:51;7.70;99.90
19968;DHT22;10145;49.152;9.282;2023-04-25T05:37:17;7.80;99.90
19968;DHT22;10145;49.152;9.282;2023-04-25T05:39:42;7.80;99.90
19968;DHT22;10145;49.152;9.282;2023-04-25T05:42:08;7.90;99.90
19968;DHT22;10145;49.152;9.282;2023-04-25T05:44:33;7.80;99.90
19968;DHT22;10145;49.152;9.282;2023-04-25T05:46:59;7.80;99.90
19968;DHT22;10145;49.152;9.282;2023-04-25T05:49:25;7.80;99.90
19968;DHT22;10145;49.152;9.282;2023-04-25T05:51:50;7.80;99.90
19968;DHT22;10145;49.152;9.282;2023-04-25T05:54:16;7.80;99.90
19968;DHT22;10145;49.152;9.282;2023-04-25T05:56:41;7.90;99.90
19968;DHT22;10145;49.152;9.282;2023-04-25T05:59:07;7.80;99.90
19968;DHT22;10145;49.152;9.282;2023-04-25T06:01:32;7.90;99.90
19968;DHT22;10145;49.152;9.282;2023-04-25T06:03:58;7.90;99.90
19968;DHT22;10145;49.152;9.282;2023-04-25T06:06:23;7.90;99.90
19968;DHT22;10145;49.152;9.282;2023-04-25T06:08:49;7.80;99.90
19968;DHT22;10145;49.152;9.282;2023-04-25T06:11:15;8.00;99.90
19968;DHT22;10145;49.152;9.282;2023-04-25T06:14:27;7.90;99.90
19968;DHT22;10145;49.152;9.282;2023-04-25T06:16:51;8.00;99.90
19968;DHT22;10145;49.152;9.282;2023-04-25T06:19:37;8.10;99.90
19968;DHT22;10145;49.152;9.282;2023-04-25T06:22:03;8.10;99.90
19968;DHT22;10145;49.152;9.282;2023-04-25T06:24:28;8.10;99.90
19968;DHT22;10145;49.152;9.282;2023-04-25T06:26:54;8.10;99.90
19968;DHT22;10145;49.152;9.282;2023-04-25T06:29:20;8.20;99.90
19968;DHT22;10145;49.152;9.282;2023-04-25T06:31:46;8.20;99.90
19968;DHT22;10145;49.152;9.282;2023-04-25T06:34:12;8.30;99.90
19968;DHT22;10145;49.152;9.282;2023-04-25T06:36:37;8.40;99.90
19968;DHT22;10145;49.152;9.282;2023-04-25T06:39:03;8.60;99.90
19968;DHT22;10145;49.152;9.282;2023-04-25T06:41:29;8.60;99.90
19968;DHT22;10145;49.152;9.282;2023-04-25T06:43:54;8.80;99.90
19968;DHT22;10145;49.152;9.282;2023-04-25T06:46:20;8.70;99.90
19968;DHT22;10145;49.152;9.282;2023-04-25T06:48:45;8.80;99.90
19968;DHT22;10145;49.152;9.282;2023-04-25T06:51:11;8.90;99.90
19968;DHT22;10145;49.152;9.282;2023-04-25T06:53:38;9.00;99.90
19968;DHT22;10145;49.152;9.282;2023-04-25T06:56:04;9.00;99.90
19968;DHT22;10145;49.152;9.282;2023-04-25T06:58:30;8.90;99.90
19968;DHT22;10145;49.152;9.282;2023-04-25T07:00:55;8.90;99.90
19968;DHT22;10145;49.152;9.282;2023-04-25T07:03:21;9.00;99.90
19968;DHT22;10145;49.152;9.282;2023-04-25T07:05:46;9.00;99.90
19968;DHT22;10145;49.152;9.282;2023-04-25T07:08:12;9.10;99.90
19968;DHT22;10145;49.152;9.282;2023-04-25T07:10:37;9.30;99.90
19968;DHT22;10145;49.152;9.282;2023-04-25T07:13:03;9.50;99.90
19968;DHT22;10145;49.152;9.282;2023-04-25T07:15:29;9.60;99.90
19968;DHT22;10145;49.152;9.282;2023-04-25T07:17:54;9.80;99.90
19968;DHT22;10145;49.152;9.282;2023-04-25T07:20:20;9.90;99.90
19968;DHT22;10145;49.152;9.282;2023-04-25T07:22:46;10.00;99.90
19968;DHT22;10145;49.152;9.282;2023-04-25T07:25:11;10.20;99.90
19968;DHT22;10145;49.152;9.282;2023-04-25T07:27:37;10.30;99.90
19968;DHT22;10145;49.152;9.282;2023-04-25T07:30:03;10.30;99.90
19968;DHT22;10145;49.152;9.282;2023-04-25T07:32:29;10.50;99.90
19968;DHT22;10145;49.152;9.282;2023-04-25T07:34:55;10.50;99.90
19968;DHT22;10145;49.152;9.282;2023-04-25T07:37:21;10.50;99.90
19968;DHT22;10145;49.152;9.282;2023-04-25T07:39:47;10.40;99.90
19968;DHT22;10145;49.152;9.282;2023-04-25T07:42:13;10.50;99.90
19968;DHT22;10145;49.152;9.282;2023-04-25T07:44:38;10.40;99.90
19968;DHT22;10145;49.152;9.282;2023-04-25T07:47:06;10.10;99.90
19968;DHT22;10145;49.152;9.282;2023-04-25T07:49:37;10.00;99.90
19968;DHT22;10145;49.152;9.282;2023-04-25T07:52:04;10.10;99.90
19968;DHT22;10145;49.152;9.282;2023-04-25T07:54:31;10.20;99.90
19968;DHT22;10145;49.152;9.282;2023-04-25T07:56:57;10.30;99.90
19968;DHT22;10145;49.152;9.282;2023-04-25T07:59:22;10.20;99.90
19968;DHT22;10145;49.152;9.282;2023-04-25T08:01:48;10.20;99.90
19968;DHT22;10145;49.152;9.282;2023-04-25T08:04:13;10.40;99.90
19968;DHT22;10145;49.152;9.282;2023-04-25T08:06:39;10.60;99.90
19968;DHT22;10145;49.152;9.282;2023-04-25T08:09:05;10.80;99.90
19968;DHT22;10145;49.152;9.282;2023-04-25T08:11:31;10.90;99.90
19968;DHT22;10145;49.152;9.282;2023-04-25T08:13:57;11.00;99.90
19968;DHT22;10145;49.152;9.282;2023-04-25T08:16:22;10.80;99.90
19968;DHT22;10145;49.152;9.282;2023-04-25T08:18:49;10.70;99.90
19968;DHT22;10145;49.152;9.282;2023-04-25T08:21:15;10.80;99.90
19968;DHT22;10145;49.152;9.282;2023-04-25T08:23:40;10.80;99.90
19968;DHT22;10145;49.152;9.282;2023-04-25T08:26:06;10.90;99.90
19968;DHT22;10145;49.152;9.282;2023-04-25T08:28:32;10.90;99.90
19968;DHT22;10145;49.152;9.282;2023-04-25T08:30:58;10.90;99.90
19968;DHT22;10145;49.152;9.282;2023-04-25T08:33:23;11.00;99.90
19968;DHT22;10145;49.152;9.282;2023-04-25T08:35:49;10.70;99.90
19968;DHT22;10145;49.152;9.282;2023-04-25T08:38:14;10.80;99.90
19968;DHT22;10145;49.152;9.282;2023-04-25T08:43:12;11.20;99.90
19968;DHT22;10145;49.152;9.282;2023-04-25T08:45:39;11.50;99.90
19968;DHT22;10145;49.152;9.282;2023-04-25T08:48:12;11.70;99.90
19968;DHT22;10145;49.152;9.282;2023-04-25T08:50:58;12.00;99.90
19968;DHT22;10145;49.152;9.282;2023-04-25T08:53:32;12.20;99.90
19968;DHT22;10145;49.152;9.282;2023-04-25T08:56:00;12.00;99.90
19968;DHT22;10145;49.152;9.282;2023-04-25T08:58:28;12.00;99.90
19968;DHT22;10145;49.152;9.282;2023-04-25T09:00:53;12.10;99.90
19968;DHT22;10145;49.152;9.282;2023-04-25T09:03:19;12.20;99.90
19968;DHT22;10145;49.152;9.282;2023-04-25T09:05:45;12.30;99.90
19968;DHT22;10145;49.152;9.282;2023-04-25T09:08:11;12.10;99.90
19968;DHT22;10145;49.152;9.282;2023-04-25T09:10:37;11.70;99.90
19968;DHT22;10145;49.152;9.282;2023-04-25T09:13:08;11.50;99.90
19968;DHT22;10145;49.152;9.282;2023-04-25T09:18:31;10.20;99.90
19968;DHT22;10145;49.152;9.282;2023-04-25T09:21:08;9.70;99.90
19968;DHT22;10145;49.152;9.282;2023-04-25T09:23:49;9.30;99.90
19968;DHT22;10145;49.152;9.282;2023-04-25T09:26:18;8.90;99.90
19968;DHT22;10145;49.152;9.282;2023-04-25T09:28:45;8.30;99.90
19968;DHT22;10145;49.152;9.282;2023-04-25T09:31:11;8.00;99.90
19968;DHT22;10145;49.152;9.282;2023-04-25T09:33:37;7.80;99.90
19968;DHT22;10145;49.152;9.282;2023-04-25T09:36:07;7.80;99.90
19968;DHT22;10145;49.152;9.282;2023-04-25T09:38:41;8.00;99.90
19968;DHT22;10145;49.152;9.282;2023-04-25T09:41:08;8.10;99.90
19968;DHT22;10145;49.152;9.282;2023-04-25T09:43:34;8.20;99.90
19968;DHT22;10145;49.152;9.282;2023-04-25T09:46:00;8.30;99.90
19968;DHT22;10145;49.152;9.282;2023-04-25T09:48:27;8.60;99.90
19968;DHT22;10145;49.152;9.282;2023-04-25T09:51:10;8.80;99.90
19968;DHT22;10145;49.152;9.282;2023-04-25T09:53:38;9.00;99.90
19968;DHT22;10145;49.152;9.282;2023-04-25T09:56:05;9.30;99.90
19968;DHT22;10145;49.152;9.282;2023-04-25T09:58:36;9.40;99.90
19968;DHT22;10145;49.152;9.282;2023-04-25T10:01:05;9.60;99.90
19968;DHT22;10145;49.152;9.282;2023-04-25T10:03:32;9.90;99.90
19968;DHT22;10145;49.152;9.282;2023-04-25T10:06:03;10.10;99.90
19968;DHT22;10145;49.152;9.282;2023-04-25T10:08:35;10.40;99.90
19968;DHT22;10145;49.152;9.282;2023-04-25T10:11:03;10.50;99.90
19968;DHT22;10145;49.152;9.282;2023-04-25T10:13:32;10.90;99.90
19968;DHT22;10145;49.152;9.282;2023-04-25T10:16:04;11.20;99.90
19968;DHT22;10145;49.152;9.282;2023-04-25T10:18:31;11.40;99.90
19968;DHT22;10145;49.152;9.282;2023-04-25T10:21:03;11.60;99.90
19968;DHT22;10145;49.152;9.282;2023-04-25T10:23:30;11.60;99.90
19968;DHT22;10145;49.152;9.282;2023-04-25T10:25:57;11.50;99.90
19968;DHT22;10145;49.152;9.282;2023-04-25T10:28:23;11.70;99.90
19968;DHT22;10145;49.152;9.282;2023-04-25T10:33:36;11.70;99.90
19968;DHT22;10145;49.152;9.282;2023-04-25T10:36:09;11.80;99.90
19968;DHT22;10145;49.152;9.282;2023-04-25T10:38:36;11.70;99.90
19968;DHT22;10145;49.152;9.282;2023-04-25T10:41:04;11.40;99.90
19968;DHT22;10145;49.152;9.282;2023-04-25T10:43:44;11.60;99.90
19968;DHT22;10145;49.152;9.282;2023-04-25T10:51:23;11.40;99.90
19968;DHT22;10145;49.152;9.282;2023-04-25T10:56:33;11.70;99.90
19968;DHT22;10145;49.152;9.282;2023-04-25T10:59:11;11.90;99.90
19968;DHT22;10145;49.152;9.282;2023-04-25T11:01:49;12.10;99.90
19968;DHT22;10145;49.152;9.282;2023-04-25T11:04:34;12.40;99.90
19968;DHT22;10145;49.152;9.282;2023-04-25T11:09:29;11.80;99.90
19968;DHT22;10145;49.152;9.282;2023-04-25T11:11:56;11.80;99.90
19968;DHT22;10145;49.152;9.282;2023-04-25T11:14:22;12.20;99.90
19968;DHT22;10145;49.152;9.282;2023-04-25T11:16:56;12.70;99.90
19968;DHT22;10145;49.152;9.282;2023-04-25T11:19:22;13.00;99.90
19968;DHT22;10145;49.152;9.282;2023-04-25T11:21:48;13.10;99.90
19968;DHT22;10145;49.152;9.282;2023-04-25T11:24:13;12.60;99.90
19968;DHT22;10145;49.152;9.282;2023-04-25T11:26:42;12.30;99.90
19968;DHT22;10145;49.152;9.282;2023-04-25T11:29:07;11.90;99.90
19968;DHT22;10145;49.152;9.282;2023-04-25T11:31:33;11.60;99.90
19968;DHT22;10145;49.152;9.282;2023-04-25T11:33:59;11.60;99.90
19968;DHT22;10145;49.152;9.282;2023-04-25T11:36:25;11.60;99.90
19968;DHT22;10145;49.152;9.282;2023-04-25T11:38:51;12.20;99.90
19968;DHT22;10145;49.152;9.282;2023-04-25T11:41:18;12.80;99.90
19968;DHT22;10145;49.152;9.282;2023-04-25T11:43:44;12.90;99.90
19968;DHT22;10145;49.152;9.282;2023-04-25T11:46:10;12.90;99.90
19968;DHT22;10145;49.152;9.282;2023-04-25T11:48:39;12.60;99.90
19968;DHT22;10145;49.152;9.282;2023-04-25T11:51:05;12.10;99.90
19968;DHT22;10145;49.152;9.282;2023-04-25T11:53:31;11.50;99.90
19968;DHT22;10145;49.152;9.282;2023-04-25T11:55:56;11.10;99.90
19968;DHT22;10145;49.152;9.282;2023-04-25T11:58:22;10.70;99.90
19968;DHT22;10145;49.152;9.282;2023-04-25T12:00:48;10.30;99.90
19968;DHT22;10145;49.152;9.282;2023-04-25T12:03:13;9.90;99.90
19968;DHT22;10145;49.152;9.282;2023-04-25T12:05:39;9.70;99.90
19968;DHT22;10145;49.152;9.282;2023-04-25T12:08:15;9.60;99.90
19968;DHT22;10145;49.152;9.282;2023-04-25T12:10:43;9.40;99.90
19968;DHT22;10145;49.152;9.282;2023-04-25T12:13:26;9.40;99.90
19968;DHT22;10145;49.152;9.282;2023-04-25T12:15:54;9.40;99.90
19968;DHT22;10145;49.152;9.282;2023-04-25T12:18:22;9.30;99.90
19968;DHT22;10145;49.152;9.282;2023-04-25T12:20:48;9.40;99.90
19968;DHT22;10145;49.152;9.282;2023-04-25T12:23:14;9.50;99.90
19968;DHT22;10145;49.152;9.282;2023-04-25T12:25:41;9.80;99.90
19968;DHT22;10145;49.152;9.282;2023-04-25T12:28:17;10.20;99.90
19968;DHT22;10145;49.152;9.282;2023-04-25T12:31:04;10.70;99.90
19968;DHT22;10145;49.152;9.282;2023-04-25T12:33:39;11.10;99.90
19968;DHT22;10145;49.152;9.282;2023-04-25T12:36:06;11.30;99.90
19968;DHT22;10145;49.152;9.282;2023-04-25T12:38:41;11.60;99.90
19968;DHT22;10145;49.152;9.282;2023-04-25T12:41:07;11.70;99.90
19968;DHT22;10145;49.152;9.282;2023-04-25T12:43:33;11.70;99.90
19968;DHT22;10145;49.152;9.282;2023-04-25T12:45:59;11.60;99.90
19968;DHT22;10145;49.152;9.282;2023-04-25T12:48:27;11.50;99.90
19968;DHT22;10145;49.152;9.282;2023-04-25T12:50:53;11.90;99.90
19968;DHT22;10145;49.152;9.282;2023-04-25T12:53:22;12.40;99.90
19968;DHT22;10145;49.152;9.282;2023-04-25T12:55:50;12.70;99.90
19968;DHT22;10145;49.152;9.282;2023-04-25T12:58:17;12.80;99.90
19968;DHT22;10145;49.152;9.282;2023-04-25T13:00:43;12.70;99.90
19968;DHT22;10145;49.152;9.282;2023-04-25T13:03:09;12.00;99.90
19968;DHT22;10145;49.152;9.282;2023-04-25T13:05:36;11.80;99.90
19968;DHT22;10145;49.152;9.282;2023-04-25T13:08:02;11.90;99.90
19968;DHT22;10145;49.152;9.282;2023-04-25T13:10:27;12.20;99.90
19968;DHT22;10145;49.152;9.282;2023-04-25T13:12:53;12.60;99.90
19968;DHT22;10145;49.152;9.282;2023-04-25T13:15:19;13.00;99.90
19968;DHT22;10145;49.152;9.282;2023-04-25T13:17:44;13.50;99.90
19968;DHT22;10145;49.152;9.282;2023-04-25T13:20:10;13.50;99.90
19968;DHT22;10145;49.152;9.282;2023-04-25T13:22:37;13.90;99.90
19968;DHT22;10145;49.152;9.282;2023-04-25T13:25:04;14.30;99.90
19968;DHT22;10145;49.152;9.282;2023-04-25T13:27:30;13.90;99.90
19968;DHT22;10145;49.152;9.282;2023-04-25T13:29:58;13.50;99.90
19968;DHT22;10145;49.152;9.282;2023-04-25T13:32:23;12.80;99.90
19968;DHT22;10145;49.152;9.282;2023-04-25T13:34:49;12.40;99.90
19968;DHT22;10145;49.152;9.282;2023-04-25T13:37:15;12.30;99.90
19968;DHT22;10145;49.152;9.282;2023-04-25T13:39:40;12.50;99.90
19968;DHT22;10145;49.152;9.282;2023-04-25T13:42:06;12.60;99.90
19968;DHT22;10145;49.152;9.282;2023-04-25T13:44:31;12.50;99.90
19968;DHT22;10145;49.152;9.282;2023-04-25T13:46:57;12.50;99.90
19968;DHT22;10145;49.152;9.282;2023-04-25T13:49:23;12.30;99.90
19968;DHT22;10145;49.152;9.282;2023-04-25T13:51:48;12.00;99.90
19968;DHT22;10145;49.152;9.282;2023-04-25T13:54:14;11.90;99.90
19968;DHT22;10145;49.152;9.282;2023-04-25T13:56:39;12.60;99.90
19968;DHT22;10145;49.152;9.282;2023-04-25T13:59:07;14.20;99.90
19968;DHT22;10145;49.152;9.282;2023-04-25T14:01:32;15.70;99.90
19968;DHT22;10145;49.152;9.282;2023-04-25T14:04:01;15.30;99.60
19968;DHT22;10145;49.152;9.282;2023-04-25T14:06:27;14.70;99.90
19968;DHT22;10145;49.152;9.282;2023-04-25T14:08:53;14.70;99.90
19968;DHT22;10145;49.152;9.282;2023-04-25T14:11:19;14.40;99.90
19968;DHT22;10145;49.152;9.282;2023-04-25T14:13:45;14.20;99.90
19968;DHT22;10145;49.152;9.282;2023-04-25T14:16:11;13.90;99.90
19968;DHT22;10145;49.152;9.282;2023-04-25T14:18:36;13.80;99.90
19968;DHT22;10145;49.152;9.282;2023-04-25T14:21:02;13.80;99.90
19968;DHT22;10145;49.152;9.282;2023-04-25T14:23:27;14.10;99.90
19968;DHT22;10145;49.152;9.282;2023-04-25T14:25:53;14.90;99.90
19968;DHT22;10145;49.152;9.282;2023-04-25T14:28:19;15.20;99.90
19968;DHT22;10145;49.152;9.282;2023-04-25T14:30:45;15.60;97.90
19968;DHT22;10145;49.152;9.282;2023-04-25T14:33:11;17.40;99.90
19968;DHT22;10145;49.152;9.282;2023-04-25T14:35:38;18.40;94.30
19968;DHT22;10145;49.152;9.282;2023-04-25T14:38:04;18.80;91.20
19968;DHT22;10145;49.152;9.282;2023-04-25T14:40:30;19.40;84.20
19968;DHT22;10145;49.152;9.282;2023-04-25T14:42:56;19.10;87.40
19968;DHT22;10145;49.152;9.282;2023-04-25T14:45:22;18.20;82.40
19968;DHT22;10145;49.152;9.282;2023-04-25T14:47:47;16.70;87.40
19968;DHT22;10145;49.152;9.282;2023-04-25T14:50:13;16.10;88.60
19968;DHT22;10145;49.152;9.282;2023-04-25T14:52:38;16.20;89.70
19968;DHT22;10145;49.152;9.282;2023-04-25T14:55:04;16.90;86.40
19968;DHT22;10145;49.152;9.282;2023-04-25T14:57:33;18.30;83.30
19968;DHT22;10145;49.152;9.282;2023-04-25T14:59:59;20.20;83.30
19968;DHT22;10145;49.152;9.282;2023-04-25T15:02:24;21.20;73.90
19968;DHT22;10145;49.152;9.282;2023-04-25T15:04:54;20.80;73.30
19968;DHT22;10145;49.152;9.282;2023-04-25T15:07:20;20.50;78.30
19968;DHT22;10145;49.152;9.282;2023-04-25T15:09:47;20.10;69.80
19968;DHT22;10145;49.152;9.282;2023-04-25T15:12:13;19.70;71.20
19968;DHT22;10145;49.152;9.282;2023-04-25T15:14:39;19.00;73.20
19968;DHT22;10145;49.152;9.282;2023-04-25T15:17:04;18.10;75.80
19968;DHT22;10145;49.152;9.282;2023-04-25T15:19:30;19.20;77.50
19968;DHT22;10145;49.152;9.282;2023-04-25T15:21:55;21.30;68.90
19968;DHT22;10145;49.152;9.282;2023-04-25T15:24:21;22.30;62.80
19968;DHT22;10145;49.152;9.282;2023-04-25T15:26:47;21.40;64.70
19968;DHT22;10145;49.152;9.282;2023-04-25T15:29:13;19.70;67.20
19968;DHT22;10145;49.152;9.282;2023-04-25T15:31:38;18.10;69.50
19968;DHT22;10145;49.152;9.282;2023-04-25T15:34:04;17.50;74.80
19968;DHT22;10145;49.152;9.282;2023-04-25T15:36:29;17.90;74.90
19968;DHT22;10145;49.152;9.282;2023-04-25T15:38:56;18.00;75.30
19968;DHT22;10145;49.152;9.282;2023-04-25T15:41:23;17.30;75.50
19968;DHT22;10145;49.152;9.282;2023-04-25T15:43:49;16.40;78.90
19968;DHT22;10145;49.152;9.282;2023-04-25T15:46:14;15.70;79.10
19968;DHT22;10145;49.152;9.282;2023-04-25T15:48:40;15.00;83.70
19968;DHT22;10145;49.152;9.282;2023-04-25T15:51:05;14.60;88.00
19968;DHT22;10145;49.152;9.282;2023-04-25T15:53:31;14.40;88.80
19968;DHT22;10145;49.152;9.282;2023-04-25T15:55:57;14.40;85.50